sensor_id;sensor_type;location;lat;lon;timestamp;temperature;humidity
20803;DHT22;10562;-33.856;151.182;2023-04-24T00:02:21;23.80;99.90
20803;DHT22;10562;-33.856;151.182;2023-04-24T00:04:52;23.70;99.90
20803;DHT22;10562;-33.856;151.182;2023-04-24T00:07:23;23.60;99.90
20803;DHT22;10562;-33.856;151.182;2023-04-24T00:09:53;23.30;99.90
20803;DHT22;10562;-33.856;151.182;2023-04-24T00:12:26;23.40;99.90
20803;DHT22;10562;-33.856;151.182;2023-04-24T00:14:57;23.30;99.90
20803;DHT22;10562;-33.856;151.182;2023-04-24T00:17:28;23.30;99.90
20803;DHT22;10562;-33.856;151.182;2023-04-24T00:19:59;23.30;99.90
20803;DHT22;10562;-33.856;151.182;2023-04-24T00:22:32;23.40;99.90
20803;DHT22;10562;-33.856;151.182;2023-04-24T00:25:03;23.50;99.90
20803;DHT22;10562;-33.856;151.182;2023-04-24T00:27:36;23.60;99.90
20803;DHT22;10562;-33.856;151.182;2023-04-24T00:30:08;23.50;99.90
20803;DHT22;10562;-33.856;151.182;2023-04-24T00:32:38;23.40;99.90
20803;DHT22;10562;-33.856;151.182;2023-04-24T00:35:09;23.50;99.90
20803;DHT22;10562;-33.856;151.182;2023-04-24T00:37:40;23.60;99.90
20803;DHT22;10562;-33.856;151.182;2023-04-24T00:40:11;23.70;99.90
20803;DHT22;10562;-33.856;151.182;2023-04-24T00:42:44;24.00;99.90
20803;DHT22;10562;-33.856;151.182;2023-04-24T00:45:15;24.30;99.90
20803;DHT22;10562;-33.856;151.182;2023-04-24T00:47:46;24.50;99.90
20803;DHT22;10562;-33.856;151.182;2023-04-24T00:50:20;24.40;99.90
20803;DHT22;10562;-33.856;151.182;2023-04-24T00:52:51;24.40;99.90
20803;DHT22;10562;-33.856;151.182;2023-04-24T00:55:22;24.60;99.90
20803;DHT22;10562;-33.856;151.182;2023-04-24T00:57:55;24.50;99.90
20803;DHT22;10562;-33.856;151.182;2023-04-24T01:00:26;24.70;99.90
20803;DHT22;10562;-33.856;151.182;2023-04-24T01:02:59;24.70;99.90
20803;DHT22;10562;-33.856;151.182;2023-04-24T01:05:31;24.80;99.90
20803;DHT22;10562;-33.856;151.182;2023-04-24T01:08:02;24.80;99.90
20803;DHT22;10562;-33.856;151.182;2023-04-24T01:10:37;24.90;99.90
20803;DHT22;10562;-33.856;151.182;2023-04-24T01:13:11;24.80;99.90
20803;DHT22;10562;-33.856;151.182;2023-04-24T01:15:42;25.10;99.90
20803;DHT22;10562;-33.856;151.182;2023-04-24T01:18:13;25.40;99.90
20803;DHT22;10562;-33.856;151.182;2023-04-24T01:20:44;25.80;99.90
20803;DHT22;10562;-33.856;151.182;2023-04-24T01:23:18;25.90;99.90
20803;DHT22;10562;-33.856;151.182;2023-04-24T01:25:49;26.10;99.90
20803;DHT22;10562;-33.856;151.182;2023-04-24T01:28:20;25.90;99.90
20803;DHT22;10562;-33.856;151.182;2023-04-24T01:30:51;25.70;99.90
20803;DHT22;10562;-33.856;151.182;2023-04-24T01:33:22;25.80;99.90
20803;DHT22;10562;-33.856;151.182;2023-04-24T01:35:53;26.00;99.90
20803;DHT22;10562;-33.856;151.182;2023-04-24T01:38:26;26.10;99.90
20803;DHT22;10562;-33.856;151.182;2023-04-24T01:40:57;26.00;99.90
20803;DHT22;10562;-33.856;151.182;2023-04-24T01:43:28;26.00;99.90
20803;DHT22;10562;-33.856;151.182;2023-04-24T01:45:59;26.00;99.90
20803;DHT22;10562;-33.856;151.182;2023-04-24T01:48:29;25.40;99.90
20803;DHT22;10562;-33.856;151.182;2023-04-24T01:51:01;25.00;99.90
20803;DHT22;10562;-33.856;151.182;2023-04-24T01:53:34;25.00;99.90
20803;DHT22;10562;-33.856;151.182;2023-04-24T01:56:05;25.30;99.90
20803;DHT22;10562;-33.856;151.182;2023-04-24T01:58:36;25.30;99.90
20803;DHT22;10562;-33.856;151.182;2023-04-24T02:01:08;25.00;99.90
20803;DHT22;10562;-33.856;151.182;2023-04-24T02:03:39;24.70;99.90
20803;DHT22;10562;-33.856;151.182;2023-04-24T02:06:10;24.10;99.90
20803;DHT22;10562;-33.856;151.182;2023-04-24T02:08:42;23.80;99.90
20803;DHT22;10562;-33.856;151.182;2023-04-24T02:11:13;23.30;99.90
20803;DHT22;10562;-33.856;151.182;2023-04-24T02:13:44;23.00;99.90
20803;DHT22;10562;-33.856;151.182;2023-04-24T02:16:18;22.80;99.90
20803;DHT22;10562;-33.856;151.182;2023-04-24T02:18:48;22.50;99.90
20803;DHT22;10562;-33.856;151.182;2023-04-24T02:21:19;22.30;99.90
20803;DHT22;10562;-33.856;151.182;2023-04-24T02:23:52;22.20;99.90
20803;DHT22;10562;-33.856;151.182;2023-04-24T02:26:23;22.10;99.90
20803;DHT22;10562;-33.856;151.182;2023-04-24T02:28:53;21.90;99.90
20803;DHT22;10562;-33.856;151.182;2023-04-24T02:31:24;21.60;99.90
20803;DHT22;10562;-33.856;151.182;2023-04-24T02:33:55;21.40;99.90
20803;DHT22;10562;-33.856;151.182;2023-04-24T02:36:26;21.20;99.90
20803;DHT22;10562;-33.856;151.182;2023-04-24T02:38:59;21.20;99.90
20803;DHT22;10562;-33.856;151.182;2023-04-24T02:41:31;21.10;99.90
20803;DHT22;10562;-33.856;151.182;2023-04-24T02:44:02;21.10;99.90
20803;DHT22;10562;-33.856;151.182;2023-04-24T02:46:32;21.20;99.90
20803;DHT22;10562;-33.856;151.182;2023-04-24T02:49:03;21.30;99.90
20803;DHT22;10562;-33.856;151.182;2023-04-24T02:51:34;21.30;99.90
20803;DHT22;10562;-33.856;151.182;2023-04-24T02:54:10;21.50;99.90
20803;DHT22;10562;-33.856;151.182;2023-04-24T02:56:41;21.60;99.90
20803;DHT22;10562;-33.856;151.182;2023-04-24T02:59:12;21.80;99.90
20803;DHT22;10562;-33.856;151.182;2023-04-24T03:01:43;21.80;99.90
20803;DHT22;10562;-33.856;151.182;2023-04-24T03:04:14;21.90;99.90
20803;DHT22;10562;-33.856;151.182;2023-04-24T03:06:47;22.10;99.90
20803;DHT22;10562;-33.856;151.182;2023-04-24T03:09:21;22.10;99.90
20803;DHT22;10562;-33.856;151.182;2023-04-24T03:11:54;22.10;99.90
20803;DHT22;10562;-33.856;151.182;2023-04-24T03:14:26;22.30;99.90
20803;DHT22;10562;-33.856;151.182;2023-04-24T03:16:58;22.30;99.90
20803;DHT22;10562;-33.856;151.182;2023-04-24T03:19:29;22.40;99.90
20803;DHT22;10562;-33.856;151.182;2023-04-24T03:22:01;22.40;99.90
20803;DHT22;10562;-33.856;151.182;2023-04-24T03:24:34;22.50;99.90
20803;DHT22;10562;-33.856;151.182;2023-04-24T03:27:05;22.60;99.90
20803;DHT22;10562;-33.856;151.182;2023-04-24T03:29:36;22.50;99.90
20803;DHT22;10562;-33.856;151.182;2023-04-24T03:32:07;22.60;99.90
20803;DHT22;10562;-33.856;151.182;2023-04-24T03:34:37;22.60;99.90
20803;DHT22;10562;-33.856;151.182;2023-04-24T03:37:08;22.60;99.90
20803;DHT22;10562;-33.856;151.182;2023-04-24T03:39:41;22.50;99.90
20803;DHT22;10562;-33.856;151.182;2023-04-24T03:42:12;22.40;99.90
20803;DHT22;10562;-33.856;151.182;2023-04-24T03:44:42;22.30;99.90
20803;DHT22;10562;-33.856;151.182;2023-04-24T03:47:13;22.20;99.90
20803;DHT22;10562;-33.856;151.182;2023-04-24T03:49:44;22.20;99.90
20803;DHT22;10562;-33.856;151.182;2023-04-24T03:52:15;22.30;99.90
20803;DHT22;10562;-33.856;151.182;2023-04-24T03:54:48;22.20;99.90
20803;DHT22;10562;-33.856;151.182;2023-04-24T03:57:19;22.20;99.90
20803;DHT22;10562;-33.856;151.182;2023-04-24T03:59:49;22.20;99.90
20803;DHT22;10562;-33.856;151.182;2023-04-24T04:02:21;22.10;99.90
20803;DHT22;10562;-33.856;151.182;2023-04-24T04:04:52;22.20;99.90
20803;DHT22;10562;-33.856;151.182;2023-04-24T04:07:22;22.20;99.90
20803;DHT22;10562;-33.856;151.182;2023-04-24T04:09:55;22.10;99.90
20803;DHT22;10562;-33.856;151.182;2023-04-24T04:12:26;22.10;99.90
20803;DHT22;10562;-33.856;151.182;2023-04-24T04:14:57;22.30;99.90
20803;DHT22;10562;-33.856;151.182;2023-04-24T04:17:27;22.50;99.90
20803;DHT22;10562;-33.856;151.182;2023-04-24T04:19:58;22.90;99.90
20803;DHT22;10562;-33.856;151.182;2023-04-24T04:22:29;23.30;99.90
20803;DHT22;10562;-33.856;151.182;2023-04-24T04:25:02;23.50;99.90
20803;DHT22;10562;-33.856;151.182;2023-04-24T04:27:33;23.60;99.90
20803;DHT22;10562;-33.856;151.182;2023-04-24T04:30:04;23.80;99.90
20803;DHT22;10562;-33.856;151.182;2023-04-24T04:32:35;23.80;99.90
20803;DHT22;10562;-33.856;151.182;2023-04-24T04:35:06;24.10;99.90
20803;DHT22;10562;-33.856;151.182;2023-04-24T04:37:37;24.10;99.90
20803;DHT22;10562;-33.856;151.182;2023-04-24T04:40:10;24.10;99.90
20803;DHT22;10562;-33.856;151.182;2023-04-24T04:42:41;24.10;99.90
20803;DHT22;10562;-33.856;151.182;2023-04-24T04:45:13;24.20;99.90
20803;DHT22;10562;-33.856;151.182;2023-04-24T04:47:44;24.20;99.90
20803;DHT22;10562;-33.856;151.182;2023-04-24T04:50:15;24.30;99.90
20803;DHT22;10562;-33.856;151.182;2023-04-24T04:52:47;24.30;99.90
20803;DHT22;10562;-33.856;151.182;2023-04-24T04:55:20;24.20;99.90
20803;DHT22;10562;-33.856;151.182;2023-04-24T04:57:51;24.20;99.90
20803;DHT22;10562;-33.856;151.182;2023-04-24T05:00:23;24.00;99.90
20803;DHT22;10562;-33.856;151.182;2023-04-24T05:02:55;23.90;99.90
20803;DHT22;10562;-33.856;151.182;2023-04-24T05:05:25;23.90;99.90
20803;DHT22;10562;-33.856;151.182;2023-04-24T05:07:56;24.10;99.90
20803;DHT22;10562;-33.856;151.182;2023-04-24T05:10:29;24.10;99.90
20803;DHT22;10562;-33.856;151.182;2023-04-24T05:12:59;24.10;99.90
20803;DHT22;10562;-33.856;151.182;2023-04-24T05:15:30;23.90;99.90
20803;DHT22;10562;-33.856;151.182;2023-04-24T05:18:01;24.00;99.90
20803;DHT22;10562;-33.856;151.182;2023-04-24T05:20:32;23.90;99.90
20803;DHT22;10562;-33.856;151.182;2023-04-24T05:23:03;23.60;99.90
20803;DHT22;10562;-33.856;151.182;2023-04-24T05:25:35;23.50;99.90
20803;DHT22;10562;-33.856;151.182;2023-04-24T05:28:07;23.30;99.90
20803;DHT22;10562;-33.856;151.182;2023-04-24T05:30:38;23.10;99.90
20803;DHT22;10562;-33.856;151.182;2023-04-24T05:33:09;22.90;99.90
20803;DHT22;10562;-33.856;151.182;2023-04-24T05:35:41;22.70;99.90
20803;DHT22;10562;-33.856;151.182;2023-04-24T05:38:14;22.50;99.90
20803;DHT22;10562;-33.856;151.182;2023-04-24T05:40:47;22.40;99.90
20803;DHT22;10562;-33.856;151.182;2023-04-24T05:43:18;22.20;99.90
20803;DHT22;10562;-33.856;151.182;2023-04-24T05:45:49;22.10;99.90
20803;DHT22;10562;-33.856;151.182;2023-04-24T05:48:21;22.00;99.90
20803;DHT22;10562;-33.856;151.182;2023-04-24T05:50:52;21.90;99.90
20803;DHT22;10562;-33.856;151.182;2023-04-24T05:53:23;21.80;99.90
20803;DHT22;10562;-33.856;151.182;2023-04-24T05:55:56;21.80;99.90
20803;DHT22;10562;-33.856;151.182;2023-04-24T05:58:27;21.70;99.90
20803;DHT22;10562;-33.856;151.182;2023-04-24T06:00:57;21.80;99.90
20803;DHT22;10562;-33.856;151.182;2023-04-24T06:03:29;21.70;99.90
20803;DHT22;10562;-33.856;151.182;2023-04-24T06:06:00;21.60;99.90
20803;DHT22;10562;-33.856;151.182;2023-04-24T06:08:31;21.40;99.90
20803;DHT22;10562;-33.856;151.182;2023-04-24T06:11:04;21.30;99.90
20803;DHT22;10562;-33.856;151.182;2023-04-24T06:13:35;21.10;99.90
20803;DHT22;10562;-33.856;151.182;2023-04-24T06:16:06;21.00;99.90
20803;DHT22;10562;-33.856;151.182;2023-04-24T06:18:37;20.80;99.90
20803;DHT22;10562;-33.856;151.182;2023-04-24T06:21:08;20.60;99.90
20803;DHT22;10562;-33.856;151.182;2023-04-24T06:23:39;20.50;99.90
20803;DHT22;10562;-33.856;151.182;2023-04-24T06:26:12;20.50;99.90
20803;DHT22;10562;-33.856;151.182;2023-04-24T06:28:42;20.50;99.90
20803;DHT22;10562;-33.856;151.182;2023-04-24T06:31:13;20.40;99.90
20803;DHT22;10562;-33.856;151.182;2023-04-24T06:33:44;20.50;99.90
20803;DHT22;10562;-33.856;151.182;2023-04-24T06:36:15;20.40;99.90
20803;DHT22;10562;-33.856;151.182;2023-04-24T06:38:46;20.40;99.90
20803;DHT22;10562;-33.856;151.182;2023-04-24T06:41:18;20.40;99.90
20803;DHT22;10562;-33.856;151.182;2023-04-24T06:43:49;20.40;99.90
20803;DHT22;10562;-33.856;151.182;2023-04-24T06:46:20;20.30;99.90
20803;DHT22;10562;-33.856;151.182;2023-04-24T06:48:51;20.30;99.90
20803;DHT22;10562;-33.856;151.182;2023-04-24T06:51:24;20.30;99.90
20803;DHT22;10562;-33.856;151.182;2023-04-24T06:53:55;20.30;99.90
20803;DHT22;10562;-33.856;151.182;2023-04-24T06:56:28;20.30;99.90
20803;DHT22;10562;-33.856;151.182;2023-04-24T06:58:59;20.20;99.90
20803;DHT22;10562;-33.856;151.182;2023-04-24T07:01:30;20.10;99.90
20803;DHT22;10562;-33.856;151.182;2023-04-24T07:04:00;20.10;99.90
20803;DHT22;10562;-33.856;151.182;2023-04-24T07:06:31;20.10;99.90
20803;DHT22;10562;-33.856;151.182;2023-04-24T07:09:03;20.10;99.90
20803;DHT22;10562;-33.856;151.182;2023-04-24T07:11:36;20.00;99.90
20803;DHT22;10562;-33.856;151.182;2023-04-24T07:14:08;19.90;99.90
20803;DHT22;10562;-33.856;151.182;2023-04-24T07:16:39;19.80;99.90
20803;DHT22;10562;-33.856;151.182;2023-04-24T07:19:10;19.80;99.90
20803;DHT22;10562;-33.856;151.182;2023-04-24T07:21:41;19.60;99.90
20803;DHT22;10562;-33.856;151.182;2023-04-24T07:24:12;19.50;99.90
20803;DHT22;10562;-33.856;151.182;2023-04-24T07:26:44;19.40;99.90
20803;DHT22;10562;-33.856;151.182;2023-04-24T07:29:15;19.20;99.90
20803;DHT22;10562;-33.856;151.182;2023-04-24T07:31:46;19.10;99.90
20803;DHT22;10562;-33.856;151.182;2023-04-24T07:34:17;19.10;99.90
20803;DHT22;10562;-33.856;151.182;2023-04-24T07:36:48;19.00;99.90
20803;DHT22;10562;-33.856;151.182;2023-04-24T07:39:19;19.00;99.90
20803;DHT22;10562;-33.856;151.182;2023-04-24T07:41:52;18.90;99.90
20803;DHT22;10562;-33.856;151.182;2023-04-24T07:44:23;18.90;99.90
20803;DHT22;10562;-33.856;151.182;2023-04-24T07:46:53;18.90;99.90
20803;DHT22;10562;-33.856;151.182;2023-04-24T07:49:24;19.00;99.90
20803;DHT22;10562;-33.856;151.182;2023-04-24T07:51:55;18.90;99.90
20803;DHT22;10562;-33.856;151.182;2023-04-24T07:54:28;18.80;99.90
20803;DHT22;10562;-33.856;151.182;2023-04-24T07:57:01;18.80;99.90
20803;DHT22;10562;-33.856;151.182;2023-04-24T07:59:32;18.70;99.90
20803;DHT22;10562;-33.856;151.182;2023-04-24T08:02:02;18.70;99.90
20803;DHT22;10562;-33.856;151.182;2023-04-24T08:04:34;18.70;99.90
20803;DHT22;10562;-33.856;151.182;2023-04-24T08:07:04;18.70;99.90
20803;DHT22;10562;-33.856;151.182;2023-04-24T08:09:35;18.60;99.90
20803;DHT22;10562;-33.856;151.182;2023-04-24T08:12:08;18.60;99.90
20803;DHT22;10562;-33.856;151.182;2023-04-24T08:14:39;18.70;99.90
20803;DHT22;10562;-33.856;151.182;2023-04-24T08:17:09;18.70;99.90
20803;DHT22;10562;-33.856;151.182;2023-04-24T08:19:41;18.70;99.90
20803;DHT22;10562;-33.856;151.182;2023-04-24T08:22:16;18.70;99.90
20803;DHT22;10562;-33.856;151.182;2023-04-24T08:24:46;18.70;99.90
20803;DHT22;10562;-33.856;151.182;2023-04-24T08:27:19;18.70;99.90
20803;DHT22;10562;-33.856;151.182;2023-04-24T08:29:50;18.70;99.90
20803;DHT22;10562;-33.856;151.182;2023-04-24T08:32:21;18.60;99.90
20803;DHT22;10562;-33.856;151.182;2023-04-24T08:34:52;18.60;99.90
20803;DHT22;10562;-33.856;151.182;2023-04-24T08:37:26;18.70;99.90
20803;DHT22;10562;-33.856;151.182;2023-04-24T08:39:57;18.80;99.90
20803;DHT22;10562;-33.856;151.182;2023-04-24T08:42:29;18.80;99.90
20803;DHT22;10562;-33.856;151.182;2023-04-24T08:45:01;18.90;99.90
20803;DHT22;10562;-33.856;151.182;2023-04-24T08:47:34;18.90;99.90
20803;DHT22;10562;-33.856;151.182;2023-04-24T08:50:06;19.00;99.90
20803;DHT22;10562;-33.856;151.182;2023-04-24T08:52:37;18.90;99.90
20803;DHT22;10562;-33.856;151.182;2023-04-24T08:55:08;19.00;99.90
20803;DHT22;10562;-33.856;151.182;2023-04-24T08:57:41;18.80;99.90
20803;DHT22;10562;-33.856;151.182;2023-04-24T09:00:13;18.80;99.90
20803;DHT22;10562;-33.856;151.182;2023-04-24T09:02:44;18.60;99.90
20803;DHT22;10562;-33.856;151.182;2023-04-24T09:05:17;18.60;99.90
20803;DHT22;10562;-33.856;151.182;2023-04-24T09:07:52;18.60;99.90
20803;DHT22;10562;-33.856;151.182;2023-04-24T09:10:24;18.60;99.90
20803;DHT22;10562;-33.856;151.182;2023-04-24T09:13:00;18.50;99.90
20803;DHT22;10562;-33.856;151.182;2023-04-24T09:15:31;18.50;99.90
20803;DHT22;10562;-33.856;151.182;2023-04-24T09:18:03;18.40;99.90
20803;DHT22;10562;-33.856;151.182;2023-04-24T09:20:34;18.50;99.90
20803;DHT22;10562;-33.856;151.182;2023-04-24T09:23:05;18.50;99.90
20803;DHT22;10562;-33.856;151.182;2023-04-24T09:25:37;18.40;99.90
20803;DHT22;10562;-33.856;151.182;2023-04-24T09:28:11;18.40;99.90
20803;DHT22;10562;-33.856;151.182;2023-04-24T09:30:42;18.30;99.90
20803;DHT22;10562;-33.856;151.182;2023-04-24T09:33:15;18.30;99.90
20803;DHT22;10562;-33.856;151.182;2023-04-24T09:35:51;18.20;99.90
20803;DHT22;10562;-33.856;151.182;2023-04-24T09:38:32;18.20;99.90
20803;DHT22;10562;-33.856;151.182;2023-04-24T09:41:04;18.10;99.90
20803;DHT22;10562;-33.856;151.182;2023-04-24T09:43:37;18.10;99.90
20803;DHT22;10562;-33.856;151.182;2023-04-24T09:46:09;18.10;99.90
20803;DHT22;10562;-33.856;151.182;2023-04-24T09:48:39;18.10;99.90
20803;DHT22;10562;-33.856;151.182;2023-04-24T09:51:10;18.00;99.90
20803;DHT22;10562;-33.856;151.182;2023-04-24T09:53:47;18.00;99.90
20803;DHT22;10562;-33.856;151.182;2023-04-24T09:56:20;18.00;99.90
20803;DHT22;10562;-33.856;151.182;2023-04-24T09:58:52;18.00;99.90
20803;DHT22;10562;-33.856;151.182;2023-04-24T10:01:31;18.00;99.90
20803;DHT22;10562;-33.856;151.182;2023-04-24T10:04:02;18.00;99.90
20803;DHT22;10562;-33.856;151.182;2023-04-24T10:06:35;18.10;99.90
20803;DHT22;10562;-33.856;151.182;2023-04-24T10:09:07;18.00;99.90
20803;DHT22;10562;-33.856;151.182;2023-04-24T10:11:43;18.00;99.90
20803;DHT22;10562;-33.856;151.182;2023-04-24T10:14:21;17.90;99.90
20803;DHT22;10562;-33.856;151.182;2023-04-24T10:16:56;17.90;99.90
20803;DHT22;10562;-33.856;151.182;2023-04-24T10:19:27;17.90;99.90
20803;DHT22;10562;-33.856;151.182;2023-04-24T10:22:00;17.80;99.90
20803;DHT22;10562;-33.856;151.182;2023-04-24T10:24:33;17.80;99.90
20803;DHT22;10562;-33.856;151.182;2023-04-24T10:27:05;17.80;99.90
20803;DHT22;10562;-33.856;151.182;2023-04-24T10:29:40;17.80;99.90
20803;DHT22;10562;-33.856;151.182;2023-04-24T10:32:11;17.80;99.90
20803;DHT22;10562;-33.856;151.182;2023-04-24T10:34:43;17.70;99.90
20803;DHT22;10562;-33.856;151.182;2023-04-24T10:37:14;17.80;99.90
20803;DHT22;10562;-33.856;151.182;2023-04-24T10:39:48;17.80;99.90
20803;DHT22;10562;-33.856;151.182;2023-04-24T10:42:22;17.80;99.90
20803;DHT22;10562;-33.856;151.182;2023-04-24T10:44:55;17.80;99.90
20803;DHT22;10562;-33.856;151.182;2023-04-24T10:47:26;17.90;99.90
20803;DHT22;10562;-33.856;151.182;2023-04-24T10:50:00;17.90;99.90
20803;DHT22;10562;-33.856;151.182;2023-04-24T10:52:45;17.90;99.90
20803;DHT22;10562;-33.856;151.182;2023-04-24T10:55:45;17.90;99.90
20803;DHT22;10562;-33.856;151.182;2023-04-24T10:58:16;17.90;99.90
20803;DHT22;10562;-33.856;151.182;2023-04-24T11:00:57;17.90;99.90
20803;DHT22;10562;-33.856;151.182;2023-04-24T11:03:29;17.90;99.90
20803;DHT22;10562;-33.856;151.182;2023-04-24T11:06:02;18.00;99.90
20803;DHT22;10562;-33.856;151.182;2023-04-24T11:08:37;18.00;99.90
20803;DHT22;10562;-33.856;151.182;2023-04-24T11:11:12;18.00;99.90
20803;DHT22;10562;-33.856;151.182;2023-04-24T11:14:04;17.90;99.90
20803;DHT22;10562;-33.856;151.182;2023-04-24T11:16:44;17.80;99.90
20803;DHT22;10562;-33.856;151.182;2023-04-24T11:19:23;17.80;99.90
20803;DHT22;10562;-33.856;151.182;2023-04-24T11:21:59;17.70;99.90
20803;DHT22;10562;-33.856;151.182;2023-04-24T11:24:38;17.70;99.90
20803;DHT22;10562;-33.856;151.182;2023-04-24T11:27:13;17.60;99.90
20803;DHT22;10562;-33.856;151.182;2023-04-24T11:29:45;17.60;99.90
20803;DHT22;10562;-33.856;151.182;2023-04-24T11:32:23;17.60;99.90
20803;DHT22;10562;-33.856;151.182;2023-04-24T11:34:55;17.60;99.90
20803;DHT22;10562;-33.856;151.182;2023-04-24T11:37:27;17.50;99.90
20803;DHT22;10562;-33.856;151.182;2023-04-24T11:39:59;17.50;99.90
20803;DHT22;10562;-33.856;151.182;2023-04-24T11:42:34;17.40;99.90
20803;DHT22;10562;-33.856;151.182;2023-04-24T11:45:09;17.40;99.90
20803;DHT22;10562;-33.856;151.182;2023-04-24T11:47:43;17.30;99.90
20803;DHT22;10562;-33.856;151.182;2023-04-24T11:50:15;17.30;99.90
20803;DHT22;10562;-33.856;151.182;2023-04-24T11:52:47;17.20;99.90
20803;DHT22;10562;-33.856;151.182;2023-04-24T11:55:28;17.10;99.90
20803;DHT22;10562;-33.856;151.182;2023-04-24T11:58:00;17.10;99.90
20803;DHT22;10562;-33.856;151.182;2023-04-24T12:00:31;17.00;99.90
20803;DHT22;10562;-33.856;151.182;2023-04-24T12:03:09;16.90;99.90
20803;DHT22;10562;-33.856;151.182;2023-04-24T12:05:40;16.90;99.90
20803;DHT22;10562;-33.856;151.182;2023-04-24T12:08:12;16.80;99.90
20803;DHT22;10562;-33.856;151.182;2023-04-24T12:10:57;16.80;99.90
20803;DHT22;10562;-33.856;151.182;2023-04-24T12:13:27;16.80;99.90
20803;DHT22;10562;-33.856;151.182;2023-04-24T12:15:58;16.70;99.90
20803;DHT22;10562;-33.856;151.182;2023-04-24T12:18:31;16.70;99.90
20803;DHT22;10562;-33.856;151.182;2023-04-24T12:21:19;16.60;99.90
20803;DHT22;10562;-33.856;151.182;2023-04-24T12:23:50;16.60;99.90
20803;DHT22;10562;-33.856;151.182;2023-04-24T12:26:21;16.60;99.90
20803;DHT22;10562;-33.856;151.182;2023-04-24T12:28:53;16.60;99.90
20803;DHT22;10562;-33.856;151.182;2023-04-24T12:31:24;16.50;99.90
20803;DHT22;10562;-33.856;151.182;2023-04-24T12:33:59;16.50;99.90
20803;DHT22;10562;-33.856;151.182;2023-04-24T12:36:30;16.50;99.90
20803;DHT22;10562;-33.856;151.182;2023-04-24T12:39:01;16.40;99.90
20803;DHT22;10562;-33.856;151.182;2023-04-24T12:41:32;16.40;99.90
20803;DHT22;10562;-33.856;151.182;2023-04-24T12:44:02;16.40;99.90
20803;DHT22;10562;-33.856;151.182;2023-04-24T12:46:33;16.50;99.90
20803;DHT22;10562;-33.856;151.182;2023-04-24T12:49:06;16.50;99.90
20803;DHT22;10562;-33.856;151.182;2023-04-24T12:51:36;16.50;99.90
20803;DHT22;10562;-33.856;151.182;2023-04-24T12:54:07;16.50;99.90
20803;DHT22;10562;-33.856;151.182;2023-04-24T12:56:39;16.60;99.90
20803;DHT22;10562;-33.856;151.182;2023-04-24T12:59:10;16.60;99.90
20803;DHT22;10562;-33.856;151.182;2023-04-24T13:01:41;16.60;99.90
20803;DHT22;10562;-33.856;151.182;2023-04-24T13:04:14;16.70;99.90
20803;DHT22;10562;-33.856;151.182;2023-04-24T13:06:44;16.70;99.90
20803;DHT22;10562;-33.856;151.182;2023-04-24T13:09:15;16.60;99.90
20803;DHT22;10562;-33.856;151.182;2023-04-24T13:11:46;16.50;99.90
20803;DHT22;10562;-33.856;151.182;2023-04-24T13:14:17;16.50;99.90
20803;DHT22;10562;-33.856;151.182;2023-04-24T13:16:48;16.50;99.90
20803;DHT22;10562;-33.856;151.182;2023-04-24T13:19:21;16.40;99.90
20803;DHT22;10562;-33.856;151.182;2023-04-24T13:21:52;16.30;99.90
20803;DHT22;10562;-33.856;151.182;2023-04-24T13:24:23;16.30;99.90
20803;DHT22;10562;-33.856;151.182;2023-04-24T13:26:54;16.40;99.90
20803;DHT22;10562;-33.856;151.182;2023-04-24T13:29:26;16.30;99.90
20803;DHT22;10562;-33.856;151.182;2023-04-24T13:31:57;16.20;99.90
20803;DHT22;10562;-33.856;151.182;2023-04-24T13:34:29;16.20;99.90
20803;DHT22;10562;-33.856;151.182;2023-04-24T13:37:00;16.10;99.90
20803;DHT22;10562;-33.856;151.182;2023-04-24T13:39:31;16.10;99.90
20803;DHT22;10562;-33.856;151.182;2023-04-24T13:42:02;16.00;99.90
20803;DHT22;10562;-33.856;151.182;2023-04-24T13:44:33;16.00;99.90
20803;DHT22;10562;-33.856;151.182;2023-04-24T13:47:04;16.00;99.90
20803;DHT22;10562;-33.856;151.182;2023-04-24T13:49:37;16.00;99.90
20803;DHT22;10562;-33.856;151.182;2023-04-24T13:52:07;16.00;99.90
20803;DHT22;10562;-33.856;151.182;2023-04-24T13:54:38;16.10;99.90
20803;DHT22;10562;-33.856;151.182;2023-04-24T13:57:09;16.10;99.90
20803;DHT22;10562;-33.856;151.182;2023-04-24T13:59:40;16.10;99.90
20803;DHT22;10562;-33.856;151.182;2023-04-24T14:02:10;16.20;99.90
20803;DHT22;10562;-33.856;151.182;2023-04-24T14:04:43;16.20;99.90
20803;DHT22;10562;-33.856;151.182;2023-04-24T14:07:15;16.20;99.90
20803;DHT22;10562;-33.856;151.182;2023-04-24T14:09:46;16.20;99.90
20803;DHT22;10562;-33.856;151.182;2023-04-24T14:12:18;16.10;99.90
20803;DHT22;10562;-33.856;151.182;2023-04-24T14:14:49;16.10;99.90
20803;DHT22;10562;-33.856;151.182;2023-04-24T14:17:20;16.10;99.90
20803;DHT22;10562;-33.856;151.182;2023-04-24T14:19:53;16.10;99.90
20803;DHT22;10562;-33.856;151.182;2023-04-24T14:22:24;16.00;99.90
20803;DHT22;10562;-33.856;151.182;2023-04-24T14:24:54;16.00;99.90
20803;DHT22;10562;-33.856;151.182;2023-04-24T14:27:26;15.90;99.90
20803;DHT22;10562;-33.856;151.182;2023-04-24T14:29:56;15.90;99.90
20803;DHT22;10562;-33.856;151.182;2023-04-24T14:32:27;15.90;99.90
20803;DHT22;10562;-33.856;151.182;2023-04-24T14:35:00;15.80;99.90
20803;DHT22;10562;-33.856;151.182;2023-04-24T14:37:31;15.90;99.90
20803;DHT22;10562;-33.856;151.182;2023-04-24T14:40:01;15.90;99.90
20803;DHT22;10562;-33.856;151.182;2023-04-24T14:45:03;15.80;99.90
20803;DHT22;10562;-33.856;151.182;2023-04-24T14:47:34;15.80;99.90
20803;DHT22;10562;-33.856;151.182;2023-04-24T14:50:08;15.80;99.90
20803;DHT22;10562;-33.856;151.182;2023-04-24T14:52:40;15.80;99.90
20803;DHT22;10562;-33.856;151.182;2023-04-24T14:55:10;15.90;99.90
20803;DHT22;10562;-33.856;151.182;2023-04-24T14:57:42;15.90;99.90
20803;DHT22;10562;-33.856;151.182;2023-04-24T15:00:13;16.00;99.90
20803;DHT22;10562;-33.856;151.182;2023-04-24T15:02:44;16.10;99.90
20803;DHT22;10562;-33.856;151.182;2023-04-24T15:05:17;16.20;99.90
20803;DHT22;10562;-33.856;151.182;2023-04-24T15:07:48;16.20;99.90
20803;DHT22;10562;-33.856;151.182;2023-04-24T15:10:19;16.20;99.90
20803;DHT22;10562;-33.856;151.182;2023-04-24T15:12:50;16.20;99.90
20803;DHT22;10562;-33.856;151.182;2023-04-24T15:15:21;16.20;99.90
20803;DHT22;10562;-33.856;151.182;2023-04-24T15:17:52;16.20;99.90
20803;DHT22;10562;-33.856;151.182;2023-04-24T15:20:25;16.10;99.90